Terminal Aerodrome Forecast
Issued by NWS

Home | Current Version | Previous Version | Text Only | Print | Product List | Glossary On
Versions: 1 2 3 4 5 6 7 8 9 10 11 12 13 14 15
000
FTUS44 KMAF 041828 AAA
TAFPEQ
TAF AMD
KPEQ 041828Z 0418/0518 09010G16KT P6SM BKN060 BKN250
     FM042000 11014G21KT P6SM BKN070 BKN250
     FM050100 10009KT P6SM SCT150 BKN250=

USA.gov is the U.S. government's official web portal to all federal, state and local government web resources and services.